• Join FlightAware (Why Join?)
  • Login
  • US Flag 
01:19PM EDT


 

Airport Tracker/Info


-or-


 

Live Flight TrackerFlight Track Log ✈ N904PA ✈ 04-May-2013 ✈ SC1 - KBFL

Flight Track Log - Related Links

Times and Time Zones

All times are in EDT time to prevent confusion due to time zone crossing. See the N904PA flight status page for this flight to view local times or setup timezone preferences in your user account.

Time Position Orientation Groundspeed Altitude Reporting Facility
EDT Latitude Longitude Course Direction KTS MPH feet Rate Location/Type
09:14PM 34.2300 -118.5869 344° North 211 243 5,900  Level Los Angeles Center
09:15PM 34.2983 -118.6139 342° North 214 246 6,300 300 Climbing Los Angeles Center
09:17PM 34.3569 -118.6367 342° North 219 252 6,700 360 Climbing Los Angeles Center
09:18PM 34.4264 -118.6639 342° North 220 253 7,200 480 Climbing Los Angeles Center
09:19PM -19.9190 -160.1375 122° Southeast  Level Estimated
09:19PM 34.4831 -118.6850 343° North 213 245 7,800  Level Los Angeles Center
09:20PM 34.5378 -118.7078 341° North 208 239 8,500 660 Climbing Los Angeles Center
09:21PM 34.5925 -118.7314 340° North 209 241 9,300 780 Climbing Los Angeles Center
09:22PM 34.6722 -118.7575 345° North 214 246 10,300 600 Climbing Los Angeles Center
09:23PM 34.7297 -118.7803 342° North 221 254 10,600 120 Climbing Los Angeles Center
09:24PM 34.7897 -118.8047 342° North 229 264 10,600  Level Los Angeles Center
09:25PM 34.8492 -118.8286 342° North 226 260 10,600  Level Los Angeles Center
09:26PM 34.9197 -118.8544 343° North 230 265 10,600  Level Los Angeles Center
09:27PM 34.9814 -118.8781 343° North 230 265 10,600  Level Los Angeles Center
09:28PM 35.0428 -118.9044 341° North 234 269 10,600 -720 Level Los Angeles Center
09:29PM 35.1064 -118.9286 343° North 240 276 9,200 -1,260 Descending Los Angeles Center
09:30PM 35.1719 -118.9539 343° North 246 283 8,100 -780 Descending Los Angeles Center
09:31PM 35.2336 -118.9764 343° North 241 277 7,700 -1,260 Descending Los Angeles Center
09:32PM 35.2936 -118.9933 347° North 232 267 5,500 -2,160 Descending Los Angeles Center
09:34PM 35.3295 -119.0130 336° Northwest  Level FlightAware Approximate